createdAt,value
2022-09-14T00:00:14.993Z,94826.97
2022-09-14T00:02:43.780Z,94826.47
2022-09-14T00:05:12.715Z,94833.59
2022-09-14T00:07:41.447Z,94824.72
2022-09-14T00:10:11.025Z,94827.41
2022-09-14T00:12:39.827Z,94834.50
2022-09-14T00:15:09.635Z,94820.59
2022-09-14T00:17:39.918Z,94819.91
2022-09-14T00:20:09.552Z,94820.47
2022-09-14T00:22:38.276Z,94825.97
2022-09-14T00:25:07.991Z,94831.41
2022-09-14T00:27:36.821Z,94844.34
2022-09-14T00:30:06.479Z,94828.78
2022-09-14T00:32:35.238Z,94834.22
2022-09-14T00:35:05.718Z,94835.91
2022-09-14T00:37:34.608Z,94842.00
2022-09-14T00:40:04.007Z,94849.31
2022-09-14T00:42:33.454Z,94844.72
2022-09-14T00:45:17.450Z,94849.47
2022-09-14T00:47:48.594Z,94853.41
2022-09-14T00:50:19.450Z,94851.31
2022-09-14T00:52:51.873Z,94857.09
2022-09-14T00:55:24.319Z,94859.41
2022-09-14T00:57:55.632Z,94855.97
2022-09-14T01:00:29.478Z,94861.50
2022-09-14T01:02:58.892Z,94859.41
2022-09-14T01:05:43.363Z,94859.25
2022-09-14T01:08:39.145Z,94855.56
2022-09-14T01:11:21.550Z,94855.31
2022-09-14T01:14:00.229Z,94849.41
2022-09-14T01:16:38.860Z,94845.47
2022-09-14T01:19:16.825Z,94853.09
2022-09-14T01:21:48.425Z,94850.13
2022-09-14T01:24:27.072Z,94852.91
2022-09-14T01:27:33.352Z,94851.97
2022-09-14T01:30:09.741Z,94851.81
2022-09-14T01:32:44.549Z,94844.59
2022-09-14T01:35:18.923Z,94847.19
2022-09-14T01:37:52.282Z,94845.81
2022-09-14T01:40:26.243Z,94855.34
2022-09-14T01:43:00.287Z,94857.84
2022-09-14T01:45:30.345Z,94852.47
2022-09-14T01:48:04.217Z,94844.97
2022-09-14T01:50:38.291Z,94842.84
2022-09-14T01:53:11.249Z,94842.75
2022-09-14T01:55:45.745Z,94840.75
2022-09-14T01:58:20.108Z,94846.75
2022-09-14T02:00:52.172Z,94845.69
2022-09-14T02:03:26.950Z,94847.53
2022-09-14T02:06:00.924Z,94839.38
2022-09-14T02:08:31.917Z,94844.16
2022-09-14T02:11:01.240Z,94847.78
2022-09-14T02:13:31.590Z,94848.28
2022-09-14T02:16:00.446Z,94840.16
2022-09-14T02:18:29.629Z,94844.78
2022-09-14T02:21:03.884Z,94848.00
2022-09-14T02:23:33.520Z,94848.78
2022-09-14T02:26:02.434Z,94846.59
2022-09-14T02:28:32.786Z,94845.56
2022-09-14T02:31:12.683Z,94848.56
2022-09-14T02:33:49.645Z,94853.13
2022-09-14T02:36:26.937Z,94851.41
2022-09-14T02:39:02.998Z,94850.44
2022-09-14T02:41:43.465Z,94851.34
2022-09-14T02:44:21.200Z,94845.25
2022-09-14T02:46:59.989Z,94850.88
2022-09-14T02:49:34.824Z,94857.78
2022-09-14T02:52:12.636Z,94857.69
2022-09-14T02:54:47.908Z,94861.25
2022-09-14T02:57:17.287Z,94852.97
2022-09-14T02:59:47.384Z,94848.25
2022-09-14T03:02:16.286Z,94850.25
2022-09-14T03:04:45.197Z,94849.53
2022-09-14T03:07:13.917Z,94845.69
2022-09-14T03:09:42.658Z,94842.72
2022-09-14T03:12:11.435Z,94831.97
2022-09-14T03:14:40.200Z,94837.69
2022-09-14T03:17:10.238Z,94837.59
2022-09-14T03:19:41.303Z,94847.25
2022-09-14T03:22:10.085Z,94843.47
2022-09-14T03:24:38.926Z,94851.75
2022-09-14T03:27:07.706Z,94848.34
2022-09-14T03:29:36.474Z,94857.09
2022-09-14T03:32:05.414Z,94848.91
2022-09-14T03:34:35.503Z,94855.84
2022-09-14T03:37:04.293Z,94852.03
2022-09-14T03:39:33.091Z,94862.63
2022-09-14T03:42:01.877Z,94859.69
2022-09-14T03:44:30.642Z,94854.13
2022-09-14T03:46:59.368Z,94855.91
2022-09-14T03:49:28.146Z,94853.34
2022-09-14T03:51:59.925Z,94854.75
2022-09-14T03:54:28.813Z,94851.81
2022-09-14T03:56:57.609Z,94852.34
2022-09-14T03:59:26.754Z,94862.22
2022-09-14T04:01:55.534Z,94857.69
2022-09-14T04:04:24.453Z,94855.38
2022-09-14T04:06:53.167Z,94848.41
2022-09-14T04:09:23.296Z,94853.75
2022-09-14T04:11:52.094Z,94855.84
2022-09-14T04:14:21.043Z,94856.19
2022-09-14T04:16:49.722Z,94854.06
2022-09-14T04:19:18.683Z,94855.59
2022-09-14T04:21:47.443Z,94858.31
2022-09-14T04:24:16.680Z,94848.88
2022-09-14T04:26:47.687Z,94853.75
2022-09-14T04:29:16.410Z,94853.75
2022-09-14T04:31:45.252Z,94862.00
2022-09-14T04:34:14.903Z,94868.28
2022-09-14T04:36:43.897Z,94856.28
2022-09-14T04:39:15.350Z,94864.53
2022-09-14T04:41:44.126Z,94869.38
2022-09-14T04:44:14.614Z,94872.03
2022-09-14T04:46:46.936Z,94874.28
2022-09-14T04:49:16.765Z,94875.00
2022-09-14T04:51:46.444Z,94882.50
2022-09-14T04:54:17.432Z,94887.16
2022-09-14T04:56:46.347Z,94893.03
2022-09-14T04:59:16.684Z,94887.91
2022-09-14T05:01:47.781Z,94897.25
2022-09-14T05:04:17.068Z,94897.22
2022-09-14T05:06:45.954Z,94891.38
2022-09-14T05:09:16.643Z,94888.81
2022-09-14T05:11:46.119Z,94896.59
2022-09-14T05:14:16.518Z,94883.78
2022-09-14T05:16:46.638Z,94891.16
2022-09-14T05:19:18.182Z,94903.28
2022-09-14T05:21:47.388Z,94902.84
2022-09-14T05:24:17.667Z,94908.75
2022-09-14T05:26:47.560Z,94922.84
2022-09-14T05:29:20.206Z,94920.91
2022-09-14T05:31:49.296Z,94940.50
2022-09-14T05:34:18.420Z,94929.44
2022-09-14T05:36:47.130Z,94923.84
2022-09-14T05:39:19.764Z,94928.34
2022-09-14T05:41:51.435Z,94915.69
2022-09-14T05:44:21.635Z,94911.13
2022-09-14T05:46:50.643Z,94922.19
2022-09-14T05:49:19.557Z,94914.19
2022-09-14T05:51:48.424Z,94914.38
2022-09-14T05:54:17.167Z,94902.38
2022-09-14T05:56:46.314Z,94903.63
2022-09-14T05:59:15.167Z,94901.63
2022-09-14T06:01:45.538Z,94908.00
2022-09-14T06:04:14.369Z,94910.34
2022-09-14T06:06:52.267Z,94897.56
2022-09-14T06:09:33.320Z,94911.31
2022-09-14T06:12:02.295Z,94904.59
2022-09-14T06:14:31.036Z,94894.13
2022-09-14T06:17:01.543Z,94903.66
2022-09-14T06:19:30.157Z,94902.06
2022-09-14T06:21:58.762Z,94898.88
2022-09-14T06:24:27.505Z,94905.44
2022-09-14T06:26:56.057Z,94906.00
2022-09-14T06:29:24.719Z,94902.41
2022-09-14T06:31:55.402Z,94916.94
2022-09-14T06:34:25.772Z,94910.59
2022-09-14T06:36:54.518Z,94902.41
2022-09-14T06:39:23.292Z,94909.44
2022-09-14T06:41:52.714Z,94906.53
2022-09-14T06:44:21.222Z,94906.25
2022-09-14T06:46:50.375Z,94900.69
2022-09-14T06:49:23.152Z,94897.38
2022-09-14T06:51:56.207Z,94897.56
2022-09-14T06:54:25.130Z,94891.00
2022-09-14T06:56:53.983Z,94894.69
2022-09-14T06:59:22.606Z,94888.63
2022-09-14T07:01:51.335Z,94893.22
2022-09-14T07:04:20.509Z,94899.56
2022-09-14T07:06:51.060Z,94899.91
2022-09-14T07:09:21.711Z,94901.50
2022-09-14T07:11:50.440Z,94903.09
2022-09-14T07:14:20.355Z,94903.25
2022-09-14T07:16:49.259Z,94892.06
2022-09-14T07:19:18.320Z,94894.31
2022-09-14T07:21:48.284Z,94891.78
2022-09-14T07:24:17.219Z,94889.41
2022-09-14T07:26:47.419Z,94886.84
2022-09-14T07:29:17.840Z,94889.09
2022-09-14T07:31:48.448Z,94888.63
2022-09-14T07:34:17.917Z,94892.44
2022-09-14T07:36:46.881Z,94883.53
2022-09-14T07:39:17.357Z,94888.31
2022-09-14T07:41:49.108Z,94880.63
2022-09-14T07:44:19.357Z,94883.81
2022-09-14T07:46:48.267Z,94889.50
2022-09-14T07:49:17.988Z,94893.69
2022-09-14T07:51:47.049Z,94885.84
2022-09-14T07:54:17.774Z,94889.47
2022-09-14T07:56:49.540Z,94886.88
2022-09-14T07:59:38.712Z,94892.28
2022-09-14T08:02:08.782Z,94898.94
2022-09-14T08:04:39.514Z,94898.09
2022-09-14T08:07:08.635Z,94910.56
2022-09-14T08:09:37.449Z,94893.94
2022-09-14T08:12:07.702Z,94902.63
2022-09-14T08:14:37.117Z,94903.09
2022-09-14T08:17:05.866Z,94903.84
2022-09-14T08:19:34.632Z,94901.44
2022-09-14T08:22:03.450Z,94902.56
2022-09-14T08:24:33.622Z,94900.19
2022-09-14T08:27:02.371Z,94887.97
2022-09-14T08:29:32.602Z,94885.69
2022-09-14T08:32:01.392Z,94889.09
2022-09-14T08:34:30.243Z,94884.69
2022-09-14T08:36:58.957Z,94878.97
2022-09-14T08:39:27.659Z,94869.19
2022-09-14T08:41:58.682Z,94876.22
2022-09-14T08:44:30.123Z,94876.19
2022-09-14T08:47:06.079Z,94877.34
2022-09-14T08:49:46.322Z,94865.22
2022-09-14T08:52:23.022Z,94877.69
2022-09-14T08:54:55.768Z,94862.38
2022-09-14T08:57:30.926Z,94868.84
2022-09-14T09:00:08.094Z,94871.47
2022-09-14T09:03:08.377Z,94877.31
2022-09-14T09:05:41.770Z,94871.88
2022-09-14T09:08:19.812Z,94869.91
2022-09-14T09:10:49.503Z,94866.88
2022-09-14T09:13:22.250Z,94869.03
2022-09-14T09:15:54.732Z,94864.03
2022-09-14T09:18:33.985Z,94864.78
2022-09-14T09:21:07.885Z,94870.97
2022-09-14T09:23:37.274Z,94861.28
2022-09-14T09:26:11.509Z,94859.81
2022-09-14T09:28:45.777Z,94847.97
2022-09-14T09:31:16.300Z,94853.28
2022-09-14T09:34:06.910Z,94854.13
2022-09-14T09:36:40.882Z,94848.91
2022-09-14T09:39:10.023Z,94853.69
2022-09-14T09:41:46.463Z,94850.56
2022-09-14T09:44:15.672Z,94851.34
2022-09-14T09:46:50.152Z,94842.03
2022-09-14T09:49:24.224Z,94841.94
2022-09-14T09:51:54.594Z,94843.09
2022-09-14T09:54:28.147Z,94831.75
2022-09-14T09:56:59.160Z,94827.16
2022-09-14T09:59:35.447Z,94835.00
2022-09-14T10:02:27.895Z,94830.91
2022-09-14T10:05:04.214Z,94832.19
2022-09-14T10:07:35.961Z,94817.09
2022-09-14T10:10:08.417Z,94818.88
2022-09-14T10:12:38.953Z,94817.09
2022-09-14T10:15:21.699Z,94819.00
2022-09-14T10:18:18.712Z,94817.44
2022-09-14T10:21:08.280Z,94805.13
2022-09-14T10:23:38.712Z,94812.22
2022-09-14T10:26:28.724Z,94812.81
2022-09-14T10:29:26.401Z,94812.72
2022-09-14T10:32:00.468Z,94812.56
2022-09-14T10:34:29.996Z,94813.94
2022-09-14T10:37:15.249Z,94815.38
2022-09-14T10:39:52.004Z,94812.06
2022-09-14T10:42:28.959Z,94806.97
2022-09-14T10:45:10.420Z,94811.63
2022-09-14T10:48:20.785Z,94806.63
2022-09-14T10:50:59.336Z,94801.03
2022-09-14T10:53:42.646Z,94810.78
2022-09-14T10:56:20.160Z,94808.72
2022-09-14T10:59:16.945Z,94801.72
2022-09-14T11:02:20.407Z,94801.19
2022-09-14T11:05:05.550Z,94797.66
2022-09-14T11:07:40.366Z,94788.06
2022-09-14T11:10:20.881Z,94786.44
2022-09-14T11:13:04.017Z,94794.44
2022-09-14T11:15:42.114Z,94801.06
2022-09-14T11:18:21.792Z,94794.03
2022-09-14T11:21:02.464Z,94784.59
2022-09-14T11:23:42.496Z,94781.56
2022-09-14T11:26:17.597Z,94777.09
2022-09-14T11:28:51.476Z,94769.56
2022-09-14T11:31:26.635Z,94759.94
2022-09-14T11:34:00.532Z,94762.97
2022-09-14T11:36:31.933Z,94755.78
2022-09-14T11:39:07.285Z,94764.66
2022-09-14T11:41:44.593Z,94766.38
2022-09-14T11:44:18.862Z,94768.38
2022-09-14T11:46:52.074Z,94756.94
2022-09-14T11:49:31.001Z,94761.84
2022-09-14T11:52:05.141Z,94744.69
2022-09-14T11:54:34.020Z,94741.78
2022-09-14T11:57:05.733Z,94748.38
2022-09-14T11:59:53.181Z,94751.25
2022-09-14T12:02:54.816Z,94754.97
2022-09-14T12:05:33.505Z,94751.28
2022-09-14T12:08:44.848Z,94745.56
2022-09-14T12:11:32.071Z,94745.38
2022-09-14T12:14:36.706Z,94746.94
2022-09-14T12:17:22.776Z,94740.84
2022-09-14T12:20:01.405Z,94748.13
2022-09-14T12:22:35.902Z,94737.13
2022-09-14T12:25:18.051Z,94737.19
2022-09-14T12:27:50.118Z,94733.16
2022-09-14T12:31:10.665Z,94730.84
2022-09-14T12:34:27.283Z,94726.41
2022-09-14T12:37:32.818Z,94730.66
2022-09-14T12:40:36.634Z,94728.56
2022-09-14T12:43:47.900Z,94735.56
2022-09-14T12:46:36.868Z,94731.16
2022-09-14T12:49:29.677Z,94737.06
2022-09-14T12:52:00.818Z,94743.09
2022-09-14T12:54:43.038Z,94745.59
2022-09-14T12:57:28.025Z,94735.19
2022-09-14T13:00:06.337Z,94733.25
2022-09-14T13:03:09.750Z,94729.25
2022-09-14T13:05:39.051Z,94735.44
2022-09-14T13:08:12.766Z,94736.81
2022-09-14T13:10:47.468Z,94734.28
2022-09-14T13:13:19.297Z,94731.50
2022-09-14T13:15:59.422Z,94741.00
2022-09-14T13:18:36.075Z,94728.97
2022-09-14T13:21:18.416Z,94722.81
2022-09-14T13:23:47.588Z,94738.56
2022-09-14T13:26:21.388Z,94731.44
2022-09-14T13:28:52.429Z,94727.66
2022-09-14T13:31:28.567Z,94727.13
2022-09-14T13:33:59.256Z,94731.50
2022-09-14T13:36:30.838Z,94724.25
2022-09-14T13:39:01.712Z,94721.94
2022-09-14T13:41:32.632Z,94720.72
2022-09-14T13:44:01.889Z,94715.34
2022-09-14T13:46:30.934Z,94715.28
2022-09-14T13:49:02.596Z,94713.50
2022-09-14T13:51:31.648Z,94709.63
2022-09-14T13:54:18.457Z,94713.31
2022-09-14T13:56:47.825Z,94706.56
2022-09-14T13:59:22.005Z,94709.06
2022-09-14T14:01:57.558Z,94709.28
2022-09-14T14:04:35.816Z,94699.28
2022-09-14T14:07:09.644Z,94698.03
2022-09-14T14:09:47.164Z,94695.56
2022-09-14T14:12:24.892Z,94691.88
2022-09-14T14:15:01.918Z,94688.22
2022-09-14T14:17:37.027Z,94689.34
2022-09-14T14:20:36.398Z,94690.41
2022-09-14T14:23:22.848Z,94692.41
2022-09-14T14:25:54.540Z,94692.94
2022-09-14T14:28:29.248Z,94691.47
2022-09-14T14:30:59.728Z,94690.94
2022-09-14T14:33:28.625Z,94676.47
2022-09-14T14:35:59.024Z,94680.41
2022-09-14T14:38:27.878Z,94675.75
2022-09-14T14:40:58.234Z,94678.03
2022-09-14T14:43:28.518Z,94680.63
2022-09-14T14:46:00.895Z,94682.03
2022-09-14T14:48:31.618Z,94683.41
2022-09-14T14:51:02.198Z,94678.03
2022-09-14T14:53:30.920Z,94679.53
2022-09-14T14:55:59.767Z,94683.72
2022-09-14T14:58:29.414Z,94673.88
2022-09-14T15:00:58.501Z,94675.34
2022-09-14T15:03:27.636Z,94671.31
2022-09-14T15:05:56.538Z,94663.38
2022-09-14T15:08:26.917Z,94661.91
2022-09-14T15:10:58.433Z,94662.25
2022-09-14T15:13:27.342Z,94662.69
2022-09-14T15:15:56.264Z,94657.38
2022-09-14T15:18:25.089Z,94661.84
2022-09-14T15:20:53.975Z,94671.00
2022-09-14T15:23:22.809Z,94662.78
2022-09-14T15:25:54.346Z,94662.44
2022-09-14T15:28:23.549Z,94657.50
2022-09-14T15:30:53.191Z,94653.75
2022-09-14T15:33:22.051Z,94648.34
2022-09-14T15:35:56.500Z,94647.75
2022-09-14T15:38:25.610Z,94645.59
2022-09-14T15:40:55.850Z,94648.22
2022-09-14T15:43:24.710Z,94642.81
2022-09-14T15:45:53.638Z,94641.69
2022-09-14T15:48:22.752Z,94639.06
2022-09-14T15:50:51.545Z,94645.19
2022-09-14T15:53:20.408Z,94642.13
2022-09-14T15:55:49.188Z,94640.22
2022-09-14T15:58:19.405Z,94641.88
2022-09-14T16:00:48.367Z,94632.63
2022-09-14T16:03:17.335Z,94632.53
2022-09-14T16:05:46.333Z,94634.94
2022-09-14T16:08:15.142Z,94633.13
2022-09-14T16:10:44.173Z,94635.94
2022-09-14T16:13:13.279Z,94641.00
2022-09-14T16:15:43.547Z,94635.34
2022-09-14T16:18:12.482Z,94637.00
2022-09-14T16:20:41.411Z,94639.03
2022-09-14T16:23:10.806Z,94637.97
2022-09-14T16:25:40.905Z,94646.03
2022-09-14T16:28:09.809Z,94641.69
2022-09-14T16:30:38.627Z,94645.91
2022-09-14T16:33:08.935Z,94637.72
2022-09-14T16:35:38.045Z,94635.09
2022-09-14T16:38:06.809Z,94628.13
2022-09-14T16:40:41.056Z,94631.81
2022-09-14T16:43:11.618Z,94629.78
2022-09-14T16:45:41.065Z,94634.31
2022-09-14T16:48:11.340Z,94627.22
2022-09-14T16:50:40.227Z,94625.16
2022-09-14T16:53:09.124Z,94629.81
2022-09-14T16:55:37.963Z,94636.34
2022-09-14T16:58:06.750Z,94632.69
2022-09-14T17:00:36.543Z,94631.56
2022-09-14T17:03:05.524Z,94635.44
2022-09-14T17:05:35.828Z,94634.34
2022-09-14T17:08:04.719Z,94640.22
2022-09-14T17:10:35.859Z,94634.38
2022-09-14T17:13:04.656Z,94643.47
2022-09-14T17:15:33.347Z,94641.53
2022-09-14T17:18:02.148Z,94649.50
2022-09-14T17:20:30.870Z,94649.97
2022-09-14T17:23:01.048Z,94649.00
2022-09-14T17:25:30.082Z,94654.06
2022-09-14T17:27:59.062Z,94649.47
2022-09-14T17:30:27.859Z,94645.19
2022-09-14T17:32:56.664Z,94640.91
2022-09-14T17:35:25.568Z,94642.31
2022-09-14T17:37:54.489Z,94648.59
2022-09-14T17:40:24.793Z,94645.41
2022-09-14T17:42:54.042Z,94637.97
2022-09-14T17:45:22.983Z,94638.09
2022-09-14T17:47:51.911Z,94636.34
2022-09-14T17:50:21.297Z,94646.34
2022-09-14T17:52:50.115Z,94658.56
2022-09-14T17:55:19.576Z,94659.47
2022-09-14T17:57:50.061Z,94664.97
2022-09-14T18:00:19.345Z,94673.06
2022-09-14T18:02:52.105Z,94663.53
2022-09-14T18:05:21.000Z,94669.13
2022-09-14T18:07:49.800Z,94674.41
2022-09-14T18:10:19.388Z,94682.59
2022-09-14T18:12:50.322Z,94681.44
2022-09-14T18:15:19.517Z,94688.31
2022-09-14T18:17:48.612Z,94696.56
2022-09-14T18:20:17.508Z,94692.16
2022-09-14T18:22:46.333Z,94693.31
2022-09-14T18:25:15.210Z,94689.50
2022-09-14T18:27:44.265Z,94688.94
2022-09-14T18:30:15.283Z,94688.16
2022-09-14T18:32:46.385Z,94700.44
2022-09-14T18:35:16.877Z,94711.47
2022-09-14T18:37:45.749Z,94709.97
2022-09-14T18:40:18.253Z,94711.84
2022-09-14T18:42:49.332Z,94719.53
2022-09-14T18:45:19.735Z,94726.09
2022-09-14T18:47:48.668Z,94732.91
2022-09-14T18:50:19.310Z,94726.22
2022-09-14T18:52:48.215Z,94732.63
2022-09-14T18:55:17.316Z,94730.94
2022-09-14T18:57:47.350Z,94735.50
2022-09-14T19:00:18.764Z,94737.59
2022-09-14T19:02:54.448Z,94728.16
2022-09-14T19:05:24.542Z,94734.69
2022-09-14T19:07:53.575Z,94727.13
2022-09-14T19:10:22.964Z,94729.03
2022-09-14T19:12:51.789Z,94737.78
2022-09-14T19:15:20.641Z,94732.59
2022-09-14T19:17:49.453Z,94738.97
2022-09-14T19:20:22.417Z,94734.19
2022-09-14T19:22:52.413Z,94736.56
2022-09-14T19:25:21.433Z,94744.34
2022-09-14T19:27:50.924Z,94745.13
2022-09-14T19:30:20.045Z,94738.38
2022-09-14T19:32:48.837Z,94745.94
2022-09-14T19:35:17.893Z,94745.56
2022-09-14T19:37:48.114Z,94740.19
2022-09-14T19:40:17.020Z,94750.50
2022-09-14T19:42:45.883Z,94753.88
2022-09-14T19:45:16.619Z,94751.09
2022-09-14T19:47:45.363Z,94762.25
2022-09-14T19:50:14.128Z,94758.06
2022-09-14T19:52:42.913Z,94776.66
2022-09-14T19:55:13.150Z,94781.19
2022-09-14T19:57:41.995Z,94781.72
2022-09-14T20:00:16.247Z,94782.81
2022-09-14T20:02:46.884Z,94791.41
2022-09-14T20:05:16.054Z,94794.22
2022-09-14T20:07:45.269Z,94794.34
2022-09-14T20:10:15.887Z,94793.78
2022-09-14T20:12:44.713Z,94791.25
2022-09-14T20:15:13.584Z,94788.06
2022-09-14T20:17:42.446Z,94784.16
2022-09-14T20:20:12.029Z,94779.09
2022-09-14T20:22:42.490Z,94788.94
2022-09-14T20:25:11.289Z,94789.53
2022-09-14T20:27:41.531Z,94790.84
2022-09-14T20:30:11.456Z,94785.47
2022-09-14T20:32:40.214Z,94790.84
2022-09-14T20:35:09.956Z,94791.94
2022-09-14T20:37:39.195Z,94783.28
2022-09-14T20:40:10.000Z,94775.53
2022-09-14T20:42:40.699Z,94766.06
2022-09-14T20:45:10.973Z,94759.16
2022-09-14T20:47:39.851Z,94763.44
2022-09-14T20:50:09.284Z,94763.06
2022-09-14T20:52:38.113Z,94765.91
2022-09-14T20:55:08.293Z,94770.63
2022-09-14T20:57:36.931Z,94758.66
2022-09-14T21:00:08.652Z,94772.22
2022-09-14T21:02:37.759Z,94778.75
2022-09-14T21:05:08.035Z,94774.78
2022-09-14T21:07:45.489Z,94767.81
2022-09-14T21:10:14.398Z,94769.53
2022-09-14T21:12:43.119Z,94768.22
2022-09-14T21:15:13.460Z,94761.53
2022-09-14T21:17:42.277Z,94759.38
2022-09-14T21:20:11.415Z,94758.00
2022-09-14T21:22:40.185Z,94754.03
2022-09-14T21:25:11.585Z,94759.34
2022-09-14T21:27:40.297Z,94756.50
2022-09-14T21:30:10.337Z,94754.28
2022-09-14T21:32:40.610Z,94765.19
2022-09-14T21:35:10.098Z,94774.41
2022-09-14T21:37:38.808Z,94765.84
2022-09-14T21:40:09.098Z,94759.69
2022-09-14T21:42:39.250Z,94752.81
2022-09-14T21:45:08.772Z,94748.75
2022-09-14T21:47:37.472Z,94752.53
2022-09-14T21:50:08.795Z,94747.94
2022-09-14T21:52:44.056Z,94748.25
2022-09-14T21:55:13.747Z,94746.84
2022-09-14T21:57:42.429Z,94754.41
2022-09-14T22:00:12.178Z,94758.16
2022-09-14T22:02:41.103Z,94751.09
2022-09-14T22:05:12.199Z,94761.53
2022-09-14T22:07:42.428Z,94766.22
2022-09-14T22:10:11.674Z,94766.84
2022-09-14T22:12:40.649Z,94765.41
2022-09-14T22:15:10.385Z,94771.38
2022-09-14T22:17:39.029Z,94768.31
2022-09-14T22:20:09.071Z,94768.03
2022-09-14T22:22:39.477Z,94774.47
2022-09-14T22:25:08.881Z,94775.50
2022-09-14T22:27:40.942Z,94783.03
2022-09-14T22:30:11.383Z,94784.78
2022-09-14T22:32:40.197Z,94785.50
2022-09-14T22:35:09.793Z,94785.28
2022-09-14T22:37:39.968Z,94784.28
2022-09-14T22:40:09.761Z,94784.03
2022-09-14T22:42:38.882Z,94786.31
2022-09-14T22:45:08.575Z,94774.00
2022-09-14T22:47:37.438Z,94777.47
2022-09-14T22:50:06.973Z,94772.41
2022-09-14T22:52:35.740Z,94772.50
2022-09-14T22:55:06.690Z,94769.34
2022-09-14T22:57:35.455Z,94774.72
2022-09-14T23:00:05.707Z,94770.00
2022-09-14T23:02:34.684Z,94760.72
2022-09-14T23:05:04.025Z,94774.94
2022-09-14T23:07:33.110Z,94771.50
2022-09-14T23:10:01.872Z,94772.38
2022-09-14T23:12:34.375Z,94780.03
2022-09-14T23:15:03.257Z,94768.94
2022-09-14T23:17:33.228Z,94764.66
2022-09-14T23:20:02.094Z,94766.81
2022-09-14T23:22:32.672Z,94761.03
2022-09-14T23:25:01.484Z,94771.50
2022-09-14T23:27:33.673Z,94761.81
2022-09-14T23:30:02.595Z,94768.25
2022-09-14T23:32:33.249Z,94772.81
2022-09-14T23:35:02.255Z,94775.25
2022-09-14T23:37:32.011Z,94770.94
2022-09-14T23:40:00.816Z,94767.38
2022-09-14T23:42:29.606Z,94771.97
2022-09-14T23:44:59.723Z,94770.44
2022-09-14T23:47:28.440Z,94772.47
2022-09-14T23:49:57.254Z,94766.00
2022-09-14T23:52:26.171Z,94762.91
2022-09-14T23:54:55.302Z,94759.28
2022-09-14T23:57:24.129Z,94769.34
2022-09-14T23:59:52.786Z,94771.50
